createdAt,value
2019-03-31T00:01:35.633Z,4.42
2019-03-31T00:04:08.771Z,4.41
2019-03-31T00:06:39.190Z,4.36
2019-03-31T00:09:11.979Z,4.33
2019-03-31T00:11:45.520Z,4.32
2019-03-31T00:14:17.942Z,4.33
2019-03-31T00:16:52.196Z,4.36
2019-03-31T00:19:22.176Z,4.30
2019-03-31T00:21:52.496Z,4.29
2019-03-31T00:24:24.970Z,4.30
2019-03-31T00:26:56.421Z,4.27
2019-03-31T00:29:28.619Z,4.25
2019-03-31T00:31:59.732Z,4.26
2019-03-31T00:34:32.284Z,4.26
2019-03-31T00:37:02.929Z,4.17
2019-03-31T00:39:36.824Z,4.08
2019-03-31T00:42:07.264Z,4.03
2019-03-31T00:44:38.915Z,3.97
2019-03-31T00:47:09.342Z,3.92
2019-03-31T00:49:42.512Z,3.87
2019-03-31T00:52:13.992Z,3.94
2019-03-31T00:54:45.092Z,3.96
2019-03-31T00:57:17.396Z,3.93
2019-03-31T00:59:50.275Z,3.90
2019-03-31T01:02:23.052Z,3.91
2019-03-31T01:04:54.094Z,3.83
2019-03-31T01:07:26.773Z,3.80
2019-03-31T01:09:57.690Z,3.77
2019-03-31T01:12:28.344Z,3.76
2019-03-31T01:14:59.481Z,3.78
2019-03-31T01:17:30.728Z,3.76
2019-03-31T01:20:01.849Z,3.75
2019-03-31T01:22:32.807Z,3.78
2019-03-31T01:25:09.169Z,3.75
2019-03-31T01:27:41.983Z,3.71
2019-03-31T01:30:13.415Z,3.67
2019-03-31T01:32:44.341Z,3.64
2019-03-31T01:35:17.324Z,3.61
2019-03-31T01:37:48.567Z,3.59
2019-03-31T01:40:19.303Z,3.60
2019-03-31T01:42:51.090Z,3.62
2019-03-31T01:45:22.710Z,3.63
2019-03-31T01:47:53.300Z,3.61
2019-03-31T01:50:25.097Z,3.59
2019-03-31T01:52:55.621Z,3.52
2019-03-31T01:55:27.082Z,3.49
2019-03-31T01:57:58.707Z,3.47
2019-03-31T02:00:39.750Z,3.46
2019-03-31T02:03:11.866Z,3.43
2019-03-31T02:05:43.115Z,3.40
2019-03-31T02:08:13.641Z,3.40
2019-03-31T02:10:44.367Z,3.39
2019-03-31T02:13:16.008Z,3.36
2019-03-31T02:15:47.510Z,3.31
2019-03-31T02:18:19.129Z,3.29
2019-03-31T02:20:50.659Z,3.24
2019-03-31T02:23:22.328Z,3.29
2019-03-31T02:25:55.614Z,3.30
2019-03-31T02:28:27.271Z,3.27
2019-03-31T02:30:58.816Z,3.19
2019-03-31T02:33:30.180Z,3.14
2019-03-31T02:36:02.144Z,3.09
2019-03-31T02:38:33.371Z,3.01
2019-03-31T02:41:05.448Z,2.98
2019-03-31T02:43:37.110Z,3.03
2019-03-31T02:46:07.568Z,3.06
2019-03-31T02:48:38.368Z,3.06
2019-03-31T02:51:10.024Z,3.09
2019-03-31T02:53:41.444Z,3.07
2019-03-31T02:56:11.890Z,3.06
2019-03-31T02:58:45.087Z,3.03
2019-03-31T03:01:16.943Z,3.01
2019-03-31T03:03:47.985Z,3.03
2019-03-31T03:06:24.042Z,3.00
2019-03-31T03:08:57.759Z,2.94
2019-03-31T03:11:27.956Z,2.94
2019-03-31T03:13:59.552Z,2.93
2019-03-31T03:16:30.936Z,2.91
2019-03-31T03:19:02.724Z,2.93
2019-03-31T03:21:34.638Z,2.93
2019-03-31T03:24:05.509Z,2.94
2019-03-31T03:26:36.250Z,2.96
2019-03-31T03:29:07.537Z,3.01
2019-03-31T03:31:38.847Z,3.03
2019-03-31T03:34:09.580Z,3.08
2019-03-31T03:36:43.314Z,3.06
2019-03-31T03:39:13.830Z,3.11
2019-03-31T03:41:44.738Z,3.12
2019-03-31T03:44:16.779Z,3.13
2019-03-31T03:46:48.148Z,3.22
2019-03-31T03:49:20.419Z,3.26
2019-03-31T03:51:51.762Z,3.31
2019-03-31T03:54:23.312Z,3.37
2019-03-31T03:56:53.567Z,3.38
2019-03-31T03:59:24.493Z,3.37
2019-03-31T04:01:57.356Z,3.47
2019-03-31T04:04:28.185Z,3.46
2019-03-31T04:06:59.738Z,3.49
2019-03-31T04:09:30.674Z,3.56
2019-03-31T04:12:02.022Z,3.62
2019-03-31T04:14:33.765Z,3.71
2019-03-31T04:17:05.395Z,3.79
2019-03-31T04:19:35.712Z,3.88
2019-03-31T04:22:06.506Z,3.93
2019-03-31T04:24:37.215Z,3.99
2019-03-31T04:27:07.953Z,4.07
2019-03-31T04:29:38.603Z,4.13
2019-03-31T04:32:09.277Z,4.23
2019-03-31T04:34:42.505Z,4.26
2019-03-31T04:37:13.034Z,4.32
2019-03-31T04:39:44.145Z,4.42
2019-03-31T04:42:15.319Z,4.59
2019-03-31T04:44:46.803Z,4.67
2019-03-31T04:47:17.243Z,4.72
2019-03-31T04:49:47.926Z,4.83
2019-03-31T04:52:19.277Z,4.94
2019-03-31T04:54:51.232Z,5.03
2019-03-31T04:57:21.759Z,5.09
2019-03-31T04:59:52.732Z,5.23
2019-03-31T05:02:26.909Z,5.32
2019-03-31T05:04:55.391Z,5.39
2019-03-31T05:07:26.119Z,5.52
2019-03-31T05:09:56.546Z,5.60
2019-03-31T05:12:27.279Z,5.73
2019-03-31T05:14:58.011Z,5.81
2019-03-31T05:17:28.747Z,5.92
2019-03-31T05:19:59.274Z,6.00
2019-03-31T05:22:30.515Z,6.08
2019-03-31T05:25:04.910Z,6.13
2019-03-31T05:27:38.122Z,6.23
2019-03-31T05:30:09.640Z,6.32
2019-03-31T05:32:43.608Z,6.43
2019-03-31T05:35:14.520Z,6.48
2019-03-31T05:37:51.345Z,6.56
2019-03-31T05:40:19.362Z,6.65
2019-03-31T05:42:52.617Z,6.74
2019-03-31T05:45:24.519Z,6.82
2019-03-31T05:47:54.831Z,6.84
2019-03-31T05:50:26.489Z,6.92
2019-03-31T05:52:57.431Z,6.99
2019-03-31T05:55:28.299Z,7.09
2019-03-31T05:58:00.842Z,7.20
2019-03-31T06:00:34.240Z,7.27
2019-03-31T06:03:05.064Z,7.27
2019-03-31T06:05:35.804Z,7.40
2019-03-31T06:08:06.438Z,7.50
2019-03-31T06:10:37.167Z,7.59
2019-03-31T06:13:10.080Z,7.80
2019-03-31T06:15:44.181Z,8.01
2019-03-31T06:18:15.306Z,8.25
2019-03-31T06:20:46.353Z,8.48
2019-03-31T06:23:16.462Z,8.78
2019-03-31T06:25:49.139Z,9.02
2019-03-31T06:28:22.662Z,9.15
2019-03-31T06:30:53.673Z,9.27
2019-03-31T06:33:26.641Z,9.34
2019-03-31T06:35:58.422Z,9.39
2019-03-31T06:38:29.052Z,9.65
2019-03-31T06:41:01.625Z,9.88
2019-03-31T06:43:35.629Z,9.99
2019-03-31T06:46:08.409Z,10.20
2019-03-31T06:48:40.665Z,10.45
2019-03-31T06:51:12.640Z,10.58
2019-03-31T06:53:49.208Z,10.89
2019-03-31T06:56:19.262Z,11.03
2019-03-31T06:58:49.962Z,11.13
2019-03-31T07:01:22.122Z,11.29
2019-03-31T07:03:52.918Z,11.47
2019-03-31T07:06:25.556Z,11.61
2019-03-31T07:08:56.602Z,11.57
2019-03-31T07:11:27.435Z,11.48
2019-03-31T07:14:00.202Z,11.55
2019-03-31T07:16:30.536Z,11.79
2019-03-31T07:19:02.759Z,11.96
2019-03-31T07:21:33.311Z,12.08
2019-03-31T07:24:03.985Z,12.03
2019-03-31T07:26:36.414Z,11.96
2019-03-31T07:29:07.246Z,12.15
2019-03-31T07:31:39.179Z,12.23
2019-03-31T07:34:11.026Z,12.45
2019-03-31T07:36:43.332Z,12.57
2019-03-31T07:39:14.109Z,12.78
2019-03-31T07:41:46.885Z,12.96
2019-03-31T07:44:17.787Z,13.13
2019-03-31T07:46:50.183Z,13.43
2019-03-31T07:49:21.845Z,13.56
2019-03-31T07:51:52.954Z,13.75
2019-03-31T07:54:24.404Z,14.02
2019-03-31T07:56:54.935Z,14.34
2019-03-31T07:59:26.256Z,14.38
2019-03-31T08:01:57.217Z,14.61
2019-03-31T08:04:28.200Z,15.07
2019-03-31T08:06:59.003Z,14.80
2019-03-31T08:09:31.249Z,15.20
2019-03-31T08:12:03.016Z,15.48
2019-03-31T08:14:33.636Z,15.56
2019-03-31T08:17:04.247Z,15.64
2019-03-31T08:19:36.194Z,15.78
2019-03-31T08:22:06.857Z,16.10
2019-03-31T08:24:43.549Z,16.50
2019-03-31T08:27:15.184Z,16.47
2019-03-31T08:29:51.992Z,16.05
2019-03-31T08:32:18.597Z,16.46
2019-03-31T08:34:49.329Z,16.46
2019-03-31T08:37:20.914Z,16.93
2019-03-31T08:39:51.409Z,17.46
2019-03-31T08:42:22.540Z,17.23
2019-03-31T08:44:54.913Z,16.42
2019-03-31T08:47:26.986Z,16.99
2019-03-31T08:50:01.577Z,17.52
2019-03-31T08:52:31.713Z,17.36
2019-03-31T08:55:02.356Z,17.64
2019-03-31T08:57:33.827Z,18.67
2019-03-31T09:00:07.790Z,19.00
2019-03-31T09:02:38.343Z,18.83
2019-03-31T09:05:10.303Z,19.01
2019-03-31T09:07:42.238Z,18.64
2019-03-31T09:10:12.593Z,19.16
2019-03-31T09:12:44.017Z,19.00
2019-03-31T09:15:15.861Z,19.25
2019-03-31T09:17:47.136Z,18.88
2019-03-31T09:20:18.186Z,18.53
2019-03-31T09:22:50.755Z,18.24
2019-03-31T09:25:21.921Z,18.58
2019-03-31T09:27:53.141Z,19.41
2019-03-31T09:30:23.874Z,19.95
2019-03-31T09:32:54.614Z,20.26
2019-03-31T09:35:26.710Z,20.21
2019-03-31T09:37:56.980Z,20.24
2019-03-31T09:40:27.902Z,20.95
2019-03-31T09:42:58.665Z,21.09
2019-03-31T09:45:29.393Z,21.10
2019-03-31T09:48:01.771Z,21.08
2019-03-31T09:50:33.318Z,20.70
2019-03-31T09:53:04.175Z,20.20
2019-03-31T09:55:34.893Z,21.07
2019-03-31T09:58:05.627Z,20.24
2019-03-31T10:00:49.893Z,20.66
2019-03-31T10:03:20.988Z,20.45
2019-03-31T10:05:51.339Z,19.36
2019-03-31T10:08:24.029Z,19.65
2019-03-31T10:10:56.660Z,20.78
2019-03-31T10:13:27.868Z,21.91
2019-03-31T10:16:02.876Z,22.08
2019-03-31T10:18:33.597Z,21.82
2019-03-31T10:21:04.739Z,22.87
2019-03-31T10:23:35.372Z,23.33
2019-03-31T10:26:07.629Z,23.22
2019-03-31T10:28:38.376Z,22.20
2019-03-31T10:31:11.355Z,22.90
2019-03-31T10:33:44.033Z,24.06
2019-03-31T10:36:15.178Z,24.68
2019-03-31T10:38:47.759Z,25.48
2019-03-31T10:41:18.516Z,24.93
2019-03-31T10:43:51.318Z,26.10
2019-03-31T10:46:21.929Z,24.33
2019-03-31T10:48:53.272Z,25.03
2019-03-31T10:51:25.926Z,24.60
2019-03-31T10:53:56.651Z,27.06
2019-03-31T10:56:28.801Z,27.62
2019-03-31T10:58:59.445Z,26.98
2019-03-31T11:01:30.080Z,27.22
2019-03-31T11:04:02.550Z,26.74
2019-03-31T11:06:32.872Z,26.50
2019-03-31T11:09:05.154Z,27.56
2019-03-31T11:11:37.003Z,27.28
2019-03-31T11:14:07.735Z,26.88
2019-03-31T11:16:38.570Z,29.14
2019-03-31T11:19:11.347Z,30.40
2019-03-31T11:21:45.560Z,30.76
2019-03-31T11:24:16.297Z,30.26
2019-03-31T11:26:47.651Z,28.08
2019-03-31T11:29:18.886Z,27.65
2019-03-31T11:31:49.911Z,27.15
2019-03-31T11:34:22.768Z,27.49
2019-03-31T11:36:56.309Z,29.56
2019-03-31T11:39:27.040Z,30.25
2019-03-31T11:41:58.903Z,31.05
2019-03-31T11:44:29.450Z,29.76
2019-03-31T11:47:00.279Z,28.21
2019-03-31T11:49:32.454Z,28.34
2019-03-31T11:52:02.808Z,29.94
2019-03-31T11:54:35.260Z,30.96
2019-03-31T11:57:05.754Z,30.75
2019-03-31T11:59:37.819Z,30.75
2019-03-31T12:02:08.547Z,30.66
2019-03-31T12:04:40.719Z,29.32
2019-03-31T12:07:12.143Z,28.50
2019-03-31T12:09:42.668Z,29.07
2019-03-31T12:12:13.997Z,30.48
2019-03-31T12:14:59.529Z,31.67
2019-03-31T12:17:18.573Z,31.04
2019-03-31T12:19:52.177Z,30.48
2019-03-31T12:22:26.777Z,30.16
2019-03-31T12:24:58.144Z,30.45
2019-03-31T12:27:30.314Z,31.67
2019-03-31T12:30:01.455Z,31.65
2019-03-31T12:32:34.031Z,31.69
2019-03-31T12:35:09.338Z,32.83
2019-03-31T12:37:43.045Z,33.16
2019-03-31T12:40:15.912Z,32.88
2019-03-31T12:42:49.644Z,32.67
2019-03-31T12:45:20.086Z,33.93
2019-03-31T12:47:51.056Z,33.72
2019-03-31T12:50:21.752Z,34.52
2019-03-31T12:52:52.412Z,34.00
2019-03-31T12:55:25.051Z,32.54
2019-03-31T12:57:57.031Z,32.84
2019-03-31T13:00:29.474Z,31.26
2019-03-31T13:03:02.590Z,31.32
2019-03-31T13:05:33.316Z,31.89
2019-03-31T13:08:04.053Z,31.58
2019-03-31T13:10:35.213Z,32.35
2019-03-31T13:13:05.956Z,31.95
2019-03-31T13:15:37.450Z,31.32
2019-03-31T13:18:08.005Z,31.20
2019-03-31T13:20:38.737Z,30.93
2019-03-31T13:23:09.470Z,30.40
2019-03-31T13:25:40.206Z,30.08
2019-03-31T13:28:12.985Z,32.01
2019-03-31T13:30:44.635Z,31.00
2019-03-31T13:33:16.402Z,31.29
2019-03-31T13:35:48.156Z,30.99
2019-03-31T13:38:19.810Z,30.53
2019-03-31T13:40:50.720Z,30.15
2019-03-31T13:43:21.478Z,30.24
2019-03-31T13:45:52.824Z,30.97
2019-03-31T13:48:23.966Z,31.08
2019-03-31T13:50:54.391Z,30.89
2019-03-31T13:53:25.943Z,30.74
2019-03-31T13:55:57.711Z,30.72
2019-03-31T13:58:28.621Z,31.13
2019-03-31T14:01:02.349Z,31.15
2019-03-31T14:03:33.077Z,31.68
2019-03-31T14:06:05.069Z,30.82
2019-03-31T14:08:36.581Z,30.89
2019-03-31T14:11:08.317Z,30.59
2019-03-31T14:13:39.895Z,30.76
2019-03-31T14:16:11.798Z,30.75
2019-03-31T14:18:43.505Z,30.39
2019-03-31T14:21:16.595Z,30.04
2019-03-31T14:23:47.941Z,30.71
2019-03-31T14:26:19.902Z,29.87
2019-03-31T14:28:50.429Z,29.12
2019-03-31T14:31:21.064Z,29.33
2019-03-31T14:33:51.798Z,29.07
2019-03-31T14:36:24.067Z,29.03
2019-03-31T14:38:54.901Z,29.21
2019-03-31T14:41:28.199Z,29.00
2019-03-31T14:43:59.232Z,28.27
2019-03-31T14:46:32.962Z,28.02
2019-03-31T14:49:05.412Z,28.17
2019-03-31T14:51:36.755Z,28.02
2019-03-31T14:54:07.489Z,28.26
2019-03-31T14:56:39.246Z,29.37
2019-03-31T14:59:10.385Z,30.29
2019-03-31T15:01:43.681Z,28.96
2019-03-31T15:04:15.539Z,27.91
2019-03-31T15:06:46.886Z,28.01
2019-03-31T15:09:18.135Z,28.93
2019-03-31T15:11:48.963Z,27.74
2019-03-31T15:14:19.763Z,27.73
2019-03-31T15:16:52.274Z,26.48
2019-03-31T15:19:22.574Z,26.50
2019-03-31T15:21:53.326Z,26.58
2019-03-31T15:24:26.210Z,25.98
2019-03-31T15:26:58.457Z,26.03
2019-03-31T15:29:29.646Z,26.11
2019-03-31T15:32:00.763Z,25.79
2019-03-31T15:34:34.106Z,24.62
2019-03-31T15:37:05.244Z,23.95
2019-03-31T15:39:38.618Z,23.53
2019-03-31T15:42:09.027Z,23.19
2019-03-31T15:44:39.751Z,22.63
2019-03-31T15:47:10.707Z,21.70
2019-03-31T15:49:41.525Z,21.09
2019-03-31T15:52:14.976Z,20.63
2019-03-31T15:54:46.164Z,19.66
2019-03-31T15:57:18.093Z,19.14
2019-03-31T15:59:50.395Z,18.58
2019-03-31T16:02:24.542Z,18.06
2019-03-31T16:04:55.555Z,17.84
2019-03-31T16:07:26.858Z,17.66
2019-03-31T16:09:58.350Z,17.24
2019-03-31T16:12:30.445Z,17.16
2019-03-31T16:15:00.829Z,17.00
2019-03-31T16:17:37.916Z,16.63
2019-03-31T16:20:08.342Z,16.47
2019-03-31T16:22:38.978Z,16.38
2019-03-31T16:25:11.899Z,16.31
2019-03-31T16:27:42.785Z,16.14
2019-03-31T16:30:13.521Z,15.99
2019-03-31T16:32:44.179Z,15.80
2019-03-31T16:35:15.209Z,15.80
2019-03-31T16:37:45.528Z,15.74
2019-03-31T16:40:16.448Z,15.68
2019-03-31T16:42:48.105Z,15.64
2019-03-31T16:45:19.143Z,15.52
2019-03-31T16:47:50.903Z,15.48
2019-03-31T16:50:23.169Z,15.44
2019-03-31T16:52:54.109Z,15.35
2019-03-31T16:55:25.041Z,15.23
2019-03-31T16:57:56.898Z,15.14
2019-03-31T17:00:27.981Z,15.04
2019-03-31T17:02:58.477Z,14.99
2019-03-31T17:05:31.454Z,14.86
2019-03-31T17:08:03.464Z,14.78
2019-03-31T17:10:34.660Z,14.78
2019-03-31T17:13:06.009Z,14.68
2019-03-31T17:15:37.530Z,14.63
2019-03-31T17:18:08.292Z,14.67
2019-03-31T17:20:41.587Z,14.57
2019-03-31T17:23:14.984Z,14.56
2019-03-31T17:25:47.232Z,14.54
2019-03-31T17:28:18.289Z,14.43
2019-03-31T17:30:48.405Z,14.42
2019-03-31T17:33:21.089Z,14.34
2019-03-31T17:35:52.124Z,14.37
2019-03-31T17:38:24.504Z,14.24
2019-03-31T17:40:56.046Z,14.12
2019-03-31T17:43:26.581Z,14.04
2019-03-31T17:46:01.081Z,13.86
2019-03-31T17:48:33.467Z,13.81
2019-03-31T17:51:05.536Z,13.83
2019-03-31T17:53:37.299Z,13.77
2019-03-31T17:56:10.373Z,13.80
2019-03-31T17:58:44.076Z,13.77
2019-03-31T18:01:15.039Z,13.77
2019-03-31T18:03:46.244Z,13.79
2019-03-31T18:06:17.293Z,13.68
2019-03-31T18:08:48.238Z,13.54
2019-03-31T18:11:20.263Z,13.49
2019-03-31T18:13:50.606Z,13.47
2019-03-31T18:16:21.611Z,13.50
2019-03-31T18:18:53.929Z,13.39
2019-03-31T18:21:27.358Z,13.40
2019-03-31T18:23:58.880Z,13.32
2019-03-31T18:26:30.465Z,13.26
2019-03-31T18:29:02.387Z,13.21
2019-03-31T18:31:32.932Z,13.14
2019-03-31T18:34:07.111Z,13.08
2019-03-31T18:36:39.177Z,13.08
2019-03-31T18:39:10.543Z,13.03
2019-03-31T18:41:42.401Z,12.84
2019-03-31T18:44:14.876Z,12.94
2019-03-31T18:46:45.615Z,12.85
2019-03-31T18:49:21.698Z,12.74
2019-03-31T18:51:52.488Z,12.61
2019-03-31T18:54:24.767Z,12.58
2019-03-31T18:57:03.798Z,12.44
2019-03-31T18:59:42.138Z,12.45
2019-03-31T19:02:15.809Z,12.48
2019-03-31T19:04:51.007Z,12.33
2019-03-31T19:07:23.623Z,12.41
2019-03-31T19:09:59.269Z,12.02
2019-03-31T19:12:32.255Z,12.39
2019-03-31T19:15:07.909Z,12.50
2019-03-31T19:17:55.458Z,12.38
2019-03-31T19:20:31.086Z,12.25
2019-03-31T19:23:21.673Z,12.23
2019-03-31T19:25:55.477Z,12.16
2019-03-31T19:28:27.984Z,12.09
2019-03-31T19:31:06.818Z,12.09
2019-03-31T19:33:42.011Z,12.07
2019-03-31T19:36:23.290Z,11.94
2019-03-31T19:39:00.678Z,11.75
2019-03-31T19:41:36.838Z,11.74
2019-03-31T19:44:28.153Z,11.76
2019-03-31T19:47:03.700Z,11.66
2019-03-31T19:49:42.523Z,11.56
2019-03-31T19:52:17.963Z,11.52
2019-03-31T19:55:03.552Z,11.60
2019-03-31T19:57:52.911Z,11.40
2019-03-31T20:00:40.959Z,11.33
2019-03-31T20:03:25.311Z,11.58
2019-03-31T20:06:12.319Z,11.43
2019-03-31T20:08:53.697Z,11.28
2019-03-31T20:11:25.877Z,11.12
2019-03-31T20:14:02.081Z,11.15
2019-03-31T20:16:49.754Z,11.08
2019-03-31T20:19:23.051Z,11.02
2019-03-31T20:21:56.276Z,10.82
2019-03-31T20:24:31.063Z,10.67
2019-03-31T20:27:08.567Z,10.56
2019-03-31T20:29:57.824Z,10.47
2019-03-31T20:32:32.746Z,10.37
2019-03-31T20:35:23.462Z,10.25
2019-03-31T20:38:07.918Z,10.15
2019-03-31T20:40:41.203Z,10.19
2019-03-31T20:43:16.648Z,10.15
2019-03-31T20:45:50.450Z,10.02
2019-03-31T20:48:20.774Z,9.92
2019-03-31T20:50:52.269Z,9.87
2019-03-31T20:53:24.183Z,9.82
2019-03-31T20:55:55.006Z,9.71
2019-03-31T20:58:25.713Z,9.73
2019-03-31T21:00:58.738Z,9.58
2019-03-31T21:03:29.877Z,9.54
2019-03-31T21:06:01.124Z,9.52
2019-03-31T21:08:31.828Z,9.44
2019-03-31T21:11:05.353Z,9.42
2019-03-31T21:13:35.675Z,9.40
2019-03-31T21:16:07.433Z,9.38
2019-03-31T21:18:38.574Z,9.43
2019-03-31T21:21:12.176Z,9.36
2019-03-31T21:23:43.128Z,9.29
2019-03-31T21:26:13.906Z,9.19
2019-03-31T21:28:46.934Z,9.14
2019-03-31T21:31:19.498Z,9.15
2019-03-31T21:33:50.751Z,9.05
2019-03-31T21:36:23.435Z,9.03
2019-03-31T21:38:55.263Z,9.08
2019-03-31T21:41:26.973Z,9.11
2019-03-31T21:43:57.674Z,9.38
2019-03-31T21:46:28.712Z,9.44
2019-03-31T21:49:01.187Z,9.68
2019-03-31T21:51:34.077Z,9.71
2019-03-31T21:54:05.317Z,10.22
2019-03-31T21:56:36.151Z,10.22
2019-03-31T21:59:06.982Z,10.58
2019-03-31T22:01:37.714Z,10.61
2019-03-31T22:04:11.318Z,10.70
2019-03-31T22:06:44.103Z,10.58
2019-03-31T22:09:15.241Z,10.52
2019-03-31T22:11:48.326Z,10.66
2019-03-31T22:14:21.623Z,10.46
2019-03-31T22:16:52.840Z,10.51
2019-03-31T22:19:25.844Z,10.55
2019-03-31T22:21:56.277Z,10.86
2019-03-31T22:24:28.543Z,10.91
2019-03-31T22:26:58.966Z,10.87
2019-03-31T22:29:29.938Z,10.93
2019-03-31T22:32:01.153Z,10.91
2019-03-31T22:34:32.600Z,10.84
2019-03-31T22:37:02.965Z,10.82
2019-03-31T22:39:35.506Z,10.86
2019-03-31T22:42:08.280Z,10.81
2019-03-31T22:44:39.229Z,10.63
2019-03-31T22:47:09.743Z,10.61
2019-03-31T22:49:40.390Z,10.58
2019-03-31T22:52:11.517Z,10.51
2019-03-31T22:54:42.764Z,10.42
2019-03-31T22:57:13.090Z,10.36
2019-03-31T22:59:46.988Z,10.33
2019-03-31T23:02:17.732Z,10.29
2019-03-31T23:04:48.367Z,10.27
2019-03-31T23:07:21.034Z,10.26
2019-03-31T23:09:52.511Z,10.26
2019-03-31T23:12:23.238Z,10.22
2019-03-31T23:14:54.664Z,10.26
2019-03-31T23:17:24.993Z,10.22
2019-03-31T23:19:56.867Z,10.23
2019-03-31T23:22:27.826Z,10.19
2019-03-31T23:24:59.438Z,10.09
2019-03-31T23:27:30.205Z,10.12
2019-03-31T23:30:04.794Z,10.08
2019-03-31T23:32:37.062Z,10.10
2019-03-31T23:35:07.896Z,10.17
2019-03-31T23:37:39.551Z,9.91
2019-03-31T23:40:10.178Z,9.77
2019-03-31T23:42:42.765Z,9.93
2019-03-31T23:45:14.613Z,9.59
2019-03-31T23:47:46.162Z,9.24
2019-03-31T23:50:16.516Z,9.14
2019-03-31T23:52:47.733Z,8.99
2019-03-31T23:55:19.083Z,8.80
2019-03-31T23:57:49.964Z,8.78
